sensor_id;sensor_type;location;lat;lon;timestamp;P1;durP1;ratioP1;P2;durP2;ratioP2
49235;SDS011;35067;48.134;8.378;2023-05-21T00:00:12;11.73;;;8.00;;
49235;SDS011;35067;48.134;8.378;2023-05-21T00:01:13;10.90;;;7.67;;
49235;SDS011;35067;48.134;8.378;2023-05-21T00:02:15;10.32;;;8.07;;
49235;SDS011;35067;48.134;8.378;2023-05-21T00:03:17;10.80;;;8.13;;
49235;SDS011;35067;48.134;8.378;2023-05-21T00:04:19;11.20;;;7.87;;
49235;SDS011;35067;48.134;8.378;2023-05-21T00:05:20;14.75;;;9.05;;
49235;SDS011;35067;48.134;8.378;2023-05-21T00:06:21;14.30;;;8.52;;
49235;SDS011;35067;48.134;8.378;2023-05-21T00:07:23;12.82;;;8.70;;
49235;SDS011;35067;48.134;8.378;2023-05-21T00:08:24;12.13;;;8.63;;
49235;SDS011;35067;48.134;8.378;2023-05-21T00:09:26;13.13;;;8.75;;
49235;SDS011;35067;48.134;8.378;2023-05-21T00:10:27;13.80;;;8.80;;
49235;SDS011;35067;48.134;8.378;2023-05-21T00:11:28;10.87;;;8.53;;
49235;SDS011;35067;48.134;8.378;2023-05-21T00:12:29;13.17;;;9.73;;
49235;SDS011;35067;48.134;8.378;2023-05-21T00:13:31;13.68;;;9.90;;
49235;SDS011;35067;48.134;8.378;2023-05-21T00:14:32;13.53;;;9.10;;
49235;SDS011;35067;48.134;8.378;2023-05-21T00:15:33;13.75;;;9.38;;
49235;SDS011;35067;48.134;8.378;2023-05-21T00:16:34;16.13;;;9.65;;
49235;SDS011;35067;48.134;8.378;2023-05-21T00:17:37;14.23;;;9.50;;
49235;SDS011;35067;48.134;8.378;2023-05-21T00:18:38;15.02;;;9.30;;
49235;SDS011;35067;48.134;8.378;2023-05-21T00:19:40;15.32;;;9.93;;
49235;SDS011;35067;48.134;8.378;2023-05-21T00:20:40;16.13;;;10.33;;
49235;SDS011;35067;48.134;8.378;2023-05-21T00:21:41;17.70;;;10.30;;
49235;SDS011;35067;48.134;8.378;2023-05-21T00:22:44;14.80;;;9.60;;
49235;SDS011;35067;48.134;8.378;2023-05-21T00:23:45;14.87;;;9.40;;
49235;SDS011;35067;48.134;8.378;2023-05-21T00:24:47;20.25;;;10.13;;
49235;SDS011;35067;48.134;8.378;2023-05-21T00:25:47;12.43;;;8.67;;
49235;SDS011;35067;48.134;8.378;2023-05-21T00:26:49;13.90;;;9.13;;
49235;SDS011;35067;48.134;8.378;2023-05-21T00:27:50;13.00;;;9.03;;
49235;SDS011;35067;48.134;8.378;2023-05-21T00:28:50;13.27;;;9.27;;
49235;SDS011;35067;48.134;8.378;2023-05-21T00:29:51;14.37;;;8.63;;
49235;SDS011;35067;48.134;8.378;2023-05-21T00:30:54;13.90;;;9.23;;
49235;SDS011;35067;48.134;8.378;2023-05-21T00:31:55;15.90;;;9.00;;
49235;SDS011;35067;48.134;8.378;2023-05-21T00:32:55;12.93;;;9.10;;
49235;SDS011;35067;48.134;8.378;2023-05-21T00:33:57;13.13;;;9.43;;
49235;SDS011;35067;48.134;8.378;2023-05-21T00:34:58;12.27;;;9.03;;
49235;SDS011;35067;48.134;8.378;2023-05-21T00:35:59;16.00;;;10.10;;
49235;SDS011;35067;48.134;8.378;2023-05-21T00:37:01;13.30;;;9.82;;
49235;SDS011;35067;48.134;8.378;2023-05-21T00:38:01;14.80;;;8.93;;
49235;SDS011;35067;48.134;8.378;2023-05-21T00:39:06;12.05;;;9.07;;
49235;SDS011;35067;48.134;8.378;2023-05-21T00:40:07;13.32;;;8.45;;
49235;SDS011;35067;48.134;8.378;2023-05-21T00:41:10;12.23;;;9.00;;
49235;SDS011;35067;48.134;8.378;2023-05-21T00:42:11;11.38;;;8.35;;
49235;SDS011;35067;48.134;8.378;2023-05-21T00:43:17;12.70;;;9.32;;
49235;SDS011;35067;48.134;8.378;2023-05-21T00:44:17;14.53;;;9.03;;
49235;SDS011;35067;48.134;8.378;2023-05-21T00:45:19;13.25;;;9.23;;
49235;SDS011;35067;48.134;8.378;2023-05-21T00:46:23;13.77;;;9.18;;
49235;SDS011;35067;48.134;8.378;2023-05-21T00:47:23;15.63;;;10.73;;
49235;SDS011;35067;48.134;8.378;2023-05-21T00:48:28;15.05;;;9.73;;
49235;SDS011;35067;48.134;8.378;2023-05-21T00:49:31;17.30;;;10.57;;
49235;SDS011;35067;48.134;8.378;2023-05-21T00:50:33;15.80;;;10.52;;
49235;SDS011;35067;48.134;8.378;2023-05-21T00:51:35;16.80;;;11.07;;
49235;SDS011;35067;48.134;8.378;2023-05-21T00:52:36;15.07;;;10.23;;
49235;SDS011;35067;48.134;8.378;2023-05-21T00:53:40;14.95;;;9.98;;
49235;SDS011;35067;48.134;8.378;2023-05-21T00:54:43;13.90;;;9.98;;
49235;SDS011;35067;48.134;8.378;2023-05-21T00:55:44;15.00;;;10.20;;
49235;SDS011;35067;48.134;8.378;2023-05-21T00:56:46;16.65;;;10.13;;
49235;SDS011;35067;48.134;8.378;2023-05-21T00:57:47;14.20;;;9.50;;
49235;SDS011;35067;48.134;8.378;2023-05-21T00:58:51;13.98;;;9.40;;
49235;SDS011;35067;48.134;8.378;2023-05-21T00:59:54;13.50;;;9.52;;
49235;SDS011;35067;48.134;8.378;2023-05-21T01:00:55;15.17;;;9.53;;
49235;SDS011;35067;48.134;8.378;2023-05-21T01:01:56;14.77;;;10.67;;
49235;SDS011;35067;48.134;8.378;2023-05-21T01:03:03;15.15;;;10.05;;
49235;SDS011;35067;48.134;8.378;2023-05-21T01:04:05;14.45;;;9.18;;
49235;SDS011;35067;48.134;8.378;2023-05-21T01:05:05;12.83;;;9.30;;
49235;SDS011;35067;48.134;8.378;2023-05-21T01:06:07;13.33;;;9.53;;
49235;SDS011;35067;48.134;8.378;2023-05-21T01:07:09;13.25;;;9.07;;
49235;SDS011;35067;48.134;8.378;2023-05-21T01:08:11;15.82;;;11.07;;
49235;SDS011;35067;48.134;8.378;2023-05-21T01:09:12;17.47;;;10.67;;
49235;SDS011;35067;48.134;8.378;2023-05-21T01:10:13;15.40;;;10.35;;
49235;SDS011;35067;48.134;8.378;2023-05-21T01:11:14;12.23;;;9.53;;
49235;SDS011;35067;48.134;8.378;2023-05-21T01:12:16;16.40;;;9.70;;
49235;SDS011;35067;48.134;8.378;2023-05-21T01:13:19;15.73;;;9.90;;
49235;SDS011;35067;48.134;8.378;2023-05-21T01:14:23;11.60;;;8.55;;
49235;SDS011;35067;48.134;8.378;2023-05-21T01:15:24;16.10;;;10.27;;
49235;SDS011;35067;48.134;8.378;2023-05-21T01:16:26;12.85;;;9.43;;
49235;SDS011;35067;48.134;8.378;2023-05-21T01:17:27;11.50;;;8.83;;
49235;SDS011;35067;48.134;8.378;2023-05-21T01:18:30;14.63;;;9.82;;
49235;SDS011;35067;48.134;8.378;2023-05-21T01:19:34;13.40;;;9.70;;
49235;SDS011;35067;48.134;8.378;2023-05-21T01:20:35;17.33;;;10.27;;
49235;SDS011;35067;48.134;8.378;2023-05-21T01:21:38;16.45;;;10.35;;
49235;SDS011;35067;48.134;8.378;2023-05-21T01:22:53;14.23;;;9.48;;
49235;SDS011;35067;48.134;8.378;2023-05-21T01:23:56;11.73;;;8.93;;
49235;SDS011;35067;48.134;8.378;2023-05-21T01:24:58;13.65;;;10.18;;
49235;SDS011;35067;48.134;8.378;2023-05-21T01:26:01;14.43;;;10.40;;
49235;SDS011;35067;48.134;8.378;2023-05-21T01:27:02;13.90;;;9.27;;
49235;SDS011;35067;48.134;8.378;2023-05-21T01:28:06;15.88;;;10.10;;
49235;SDS011;35067;48.134;8.378;2023-05-21T01:29:08;16.27;;;10.57;;
49235;SDS011;35067;48.134;8.378;2023-05-21T01:30:13;15.30;;;9.90;;
49235;SDS011;35067;48.134;8.378;2023-05-21T01:31:36;15.10;;;10.48;;
49235;SDS011;35067;48.134;8.378;2023-05-21T01:33:19;14.73;;;9.57;;
49235;SDS011;35067;48.134;8.378;2023-05-21T01:34:28;12.95;;;9.43;;
49235;SDS011;35067;48.134;8.378;2023-05-21T01:39:29;17.02;;;10.27;;
49235;SDS011;35067;48.134;8.378;2023-05-21T01:40:50;14.93;;;10.38;;
49235;SDS011;35067;48.134;8.378;2023-05-21T01:42:04;17.48;;;10.90;;
49235;SDS011;35067;48.134;8.378;2023-05-21T01:43:08;16.83;;;10.05;;
49235;SDS011;35067;48.134;8.378;2023-05-21T01:44:10;16.33;;;9.95;;
49235;SDS011;35067;48.134;8.378;2023-05-21T01:45:13;16.27;;;10.73;;
49235;SDS011;35067;48.134;8.378;2023-05-21T01:46:17;12.73;;;9.43;;
49235;SDS011;35067;48.134;8.378;2023-05-21T01:47:23;14.25;;;9.82;;
49235;SDS011;35067;48.134;8.378;2023-05-21T01:48:28;15.73;;;10.18;;
49235;SDS011;35067;48.134;8.378;2023-05-21T01:49:30;13.88;;;9.60;;
49235;SDS011;35067;48.134;8.378;2023-05-21T01:50:31;16.35;;;10.60;;
49235;SDS011;35067;48.134;8.378;2023-05-21T01:51:35;14.93;;;10.50;;
49235;SDS011;35067;48.134;8.378;2023-05-21T01:52:36;14.60;;;10.63;;
49235;SDS011;35067;48.134;8.378;2023-05-21T01:53:37;17.27;;;11.63;;
49235;SDS011;35067;48.134;8.378;2023-05-21T01:54:39;17.08;;;12.32;;
49235;SDS011;35067;48.134;8.378;2023-05-21T01:55:40;18.30;;;11.07;;
49235;SDS011;35067;48.134;8.378;2023-05-21T01:56:41;16.03;;;10.67;;
49235;SDS011;35067;48.134;8.378;2023-05-21T01:57:41;15.97;;;9.83;;
49235;SDS011;35067;48.134;8.378;2023-05-21T01:58:42;15.07;;;10.43;;
49235;SDS011;35067;48.134;8.378;2023-05-21T01:59:43;14.57;;;10.53;;
49235;SDS011;35067;48.134;8.378;2023-05-21T02:00:44;16.70;;;10.65;;
49235;SDS011;35067;48.134;8.378;2023-05-21T02:01:45;17.05;;;10.73;;
49235;SDS011;35067;48.134;8.378;2023-05-21T02:02:46;15.03;;;10.23;;
49235;SDS011;35067;48.134;8.378;2023-05-21T02:03:47;17.25;;;11.50;;
49235;SDS011;35067;48.134;8.378;2023-05-21T02:04:48;15.33;;;10.90;;
49235;SDS011;35067;48.134;8.378;2023-05-21T02:05:49;16.40;;;11.27;;
49235;SDS011;35067;48.134;8.378;2023-05-21T02:06:50;16.00;;;10.70;;
49235;SDS011;35067;48.134;8.378;2023-05-21T02:07:53;14.68;;;10.32;;
49235;SDS011;35067;48.134;8.378;2023-05-21T02:08:54;14.90;;;10.20;;
49235;SDS011;35067;48.134;8.378;2023-05-21T02:09:55;13.88;;;10.27;;
49235;SDS011;35067;48.134;8.378;2023-05-21T02:10:56;15.90;;;11.50;;
49235;SDS011;35067;48.134;8.378;2023-05-21T02:11:56;15.63;;;10.70;;
49235;SDS011;35067;48.134;8.378;2023-05-21T02:12:57;14.20;;;9.33;;
49235;SDS011;35067;48.134;8.378;2023-05-21T02:13:58;14.67;;;10.40;;
49235;SDS011;35067;48.134;8.378;2023-05-21T02:14:59;16.05;;;10.75;;
49235;SDS011;35067;48.134;8.378;2023-05-21T02:16:01;15.35;;;9.90;;
49235;SDS011;35067;48.134;8.378;2023-05-21T02:17:03;14.65;;;9.82;;
49235;SDS011;35067;48.134;8.378;2023-05-21T02:18:04;19.20;;;10.90;;
49235;SDS011;35067;48.134;8.378;2023-05-21T02:19:05;15.40;;;11.70;;
49235;SDS011;35067;48.134;8.378;2023-05-21T02:20:09;15.55;;;10.82;;
49235;SDS011;35067;48.134;8.378;2023-05-21T02:21:10;15.05;;;10.95;;
49235;SDS011;35067;48.134;8.378;2023-05-21T02:22:11;15.88;;;11.18;;
49235;SDS011;35067;48.134;8.378;2023-05-21T02:23:12;15.50;;;10.57;;
49235;SDS011;35067;48.134;8.378;2023-05-21T02:24:13;17.20;;;11.13;;
49235;SDS011;35067;48.134;8.378;2023-05-21T02:25:15;17.13;;;11.63;;
49235;SDS011;35067;48.134;8.378;2023-05-21T02:26:28;17.67;;;10.93;;
49235;SDS011;35067;48.134;8.378;2023-05-21T02:27:29;21.02;;;11.77;;
49235;SDS011;35067;48.134;8.378;2023-05-21T02:28:31;17.50;;;11.90;;
49235;SDS011;35067;48.134;8.378;2023-05-21T02:29:33;16.85;;;11.10;;
49235;SDS011;35067;48.134;8.378;2023-05-21T02:30:33;15.10;;;10.80;;
49235;SDS011;35067;48.134;8.378;2023-05-21T02:31:34;15.60;;;11.00;;
49235;SDS011;35067;48.134;8.378;2023-05-21T02:32:36;16.48;;;10.77;;
49235;SDS011;35067;48.134;8.378;2023-05-21T02:33:41;17.27;;;11.25;;
49235;SDS011;35067;48.134;8.378;2023-05-21T02:34:42;16.77;;;10.77;;
49235;SDS011;35067;48.134;8.378;2023-05-21T02:35:44;19.08;;;11.23;;
49235;SDS011;35067;48.134;8.378;2023-05-21T02:36:45;16.85;;;11.90;;
49235;SDS011;35067;48.134;8.378;2023-05-21T02:37:51;17.15;;;11.05;;
49235;SDS011;35067;48.134;8.378;2023-05-21T02:38:51;16.77;;;11.43;;
49235;SDS011;35067;48.134;8.378;2023-05-21T02:39:55;19.27;;;11.77;;
49235;SDS011;35067;48.134;8.378;2023-05-21T02:40:55;17.00;;;10.77;;
49235;SDS011;35067;48.134;8.378;2023-05-21T02:41:56;20.40;;;11.43;;
49235;SDS011;35067;48.134;8.378;2023-05-21T02:42:57;15.73;;;10.83;;
49235;SDS011;35067;48.134;8.378;2023-05-21T02:43:58;16.75;;;11.52;;
49235;SDS011;35067;48.134;8.378;2023-05-21T02:44:59;19.70;;;11.30;;
49235;SDS011;35067;48.134;8.378;2023-05-21T02:45:59;19.37;;;11.73;;
49235;SDS011;35067;48.134;8.378;2023-05-21T02:47:00;17.33;;;10.63;;
49235;SDS011;35067;48.134;8.378;2023-05-21T02:48:01;16.43;;;11.57;;
49235;SDS011;35067;48.134;8.378;2023-05-21T02:49:02;18.03;;;10.87;;
49235;SDS011;35067;48.134;8.378;2023-05-21T02:50:04;15.33;;;11.30;;
49235;SDS011;35067;48.134;8.378;2023-05-21T02:51:07;16.67;;;11.00;;
49235;SDS011;35067;48.134;8.378;2023-05-21T02:52:09;17.98;;;11.40;;
49235;SDS011;35067;48.134;8.378;2023-05-21T02:53:10;16.47;;;10.77;;
49235;SDS011;35067;48.134;8.378;2023-05-21T02:54:11;17.93;;;11.27;;
49235;SDS011;35067;48.134;8.378;2023-05-21T02:55:12;14.60;;;10.90;;
49235;SDS011;35067;48.134;8.378;2023-05-21T02:56:12;19.73;;;11.97;;
49235;SDS011;35067;48.134;8.378;2023-05-21T02:57:14;16.90;;;11.48;;
49235;SDS011;35067;48.134;8.378;2023-05-21T02:58:17;15.60;;;11.13;;
49235;SDS011;35067;48.134;8.378;2023-05-21T02:59:18;18.07;;;11.97;;
49235;SDS011;35067;48.134;8.378;2023-05-21T03:00:18;17.53;;;11.67;;
49235;SDS011;35067;48.134;8.378;2023-05-21T03:01:19;20.50;;;12.17;;
49235;SDS011;35067;48.134;8.378;2023-05-21T03:02:20;18.37;;;11.60;;
49235;SDS011;35067;48.134;8.378;2023-05-21T03:03:22;15.85;;;11.52;;
49235;SDS011;35067;48.134;8.378;2023-05-21T03:04:22;18.37;;;11.73;;
49235;SDS011;35067;48.134;8.378;2023-05-21T03:05:24;17.45;;;11.95;;
49235;SDS011;35067;48.134;8.378;2023-05-21T03:06:24;15.23;;;11.27;;
49235;SDS011;35067;48.134;8.378;2023-05-21T03:07:25;15.37;;;11.47;;
49235;SDS011;35067;48.134;8.378;2023-05-21T03:08:26;16.40;;;10.97;;
49235;SDS011;35067;48.134;8.378;2023-05-21T03:09:27;16.33;;;11.20;;
49235;SDS011;35067;48.134;8.378;2023-05-21T03:10:28;18.50;;;11.90;;
49235;SDS011;35067;48.134;8.378;2023-05-21T03:11:29;17.63;;;12.20;;
49235;SDS011;35067;48.134;8.378;2023-05-21T03:12:30;20.05;;;11.95;;
49235;SDS011;35067;48.134;8.378;2023-05-21T03:13:31;18.93;;;11.83;;
49235;SDS011;35067;48.134;8.378;2023-05-21T03:14:31;17.03;;;11.67;;
49235;SDS011;35067;48.134;8.378;2023-05-21T03:15:33;16.70;;;11.90;;
49235;SDS011;35067;48.134;8.378;2023-05-21T03:16:33;17.43;;;11.23;;
49235;SDS011;35067;48.134;8.378;2023-05-21T03:17:35;18.13;;;12.02;;
49235;SDS011;35067;48.134;8.378;2023-05-21T03:18:35;18.33;;;12.57;;
49235;SDS011;35067;48.134;8.378;2023-05-21T03:19:36;20.13;;;11.87;;
49235;SDS011;35067;48.134;8.378;2023-05-21T03:20:37;19.43;;;11.73;;
49235;SDS011;35067;48.134;8.378;2023-05-21T03:21:42;18.83;;;11.48;;
49235;SDS011;35067;48.134;8.378;2023-05-21T03:22:43;18.63;;;12.77;;
49235;SDS011;35067;48.134;8.378;2023-05-21T03:23:45;21.42;;;11.60;;
49235;SDS011;35067;48.134;8.378;2023-05-21T03:24:46;14.75;;;10.52;;
49235;SDS011;35067;48.134;8.378;2023-05-21T03:25:47;18.70;;;11.73;;
49235;SDS011;35067;48.134;8.378;2023-05-21T03:26:48;18.57;;;11.53;;
49235;SDS011;35067;48.134;8.378;2023-05-21T03:27:50;19.92;;;12.00;;
49235;SDS011;35067;48.134;8.378;2023-05-21T03:28:51;20.35;;;11.88;;
49235;SDS011;35067;48.134;8.378;2023-05-21T03:29:52;19.70;;;11.82;;
49235;SDS011;35067;48.134;8.378;2023-05-21T03:30:54;21.55;;;13.27;;
49235;SDS011;35067;48.134;8.378;2023-05-21T03:31:55;19.80;;;12.10;;
49235;SDS011;35067;48.134;8.378;2023-05-21T03:32:56;18.45;;;11.68;;
49235;SDS011;35067;48.134;8.378;2023-05-21T03:33:58;18.50;;;10.82;;
49235;SDS011;35067;48.134;8.378;2023-05-21T03:34:59;16.87;;;11.73;;
49235;SDS011;35067;48.134;8.378;2023-05-21T03:36:00;17.63;;;11.30;;
49235;SDS011;35067;48.134;8.378;2023-05-21T03:37:00;17.77;;;11.67;;
49235;SDS011;35067;48.134;8.378;2023-05-21T03:38:01;19.40;;;11.93;;
49235;SDS011;35067;48.134;8.378;2023-05-21T03:39:02;17.23;;;11.70;;
49235;SDS011;35067;48.134;8.378;2023-05-21T03:40:06;18.45;;;11.15;;
49235;SDS011;35067;48.134;8.378;2023-05-21T03:41:07;18.85;;;11.98;;
49235;SDS011;35067;48.134;8.378;2023-05-21T03:42:08;20.53;;;13.13;;
49235;SDS011;35067;48.134;8.378;2023-05-21T03:43:09;16.33;;;10.83;;
49235;SDS011;35067;48.134;8.378;2023-05-21T03:44:09;19.13;;;12.27;;
49235;SDS011;35067;48.134;8.378;2023-05-21T03:45:10;19.80;;;12.80;;
49235;SDS011;35067;48.134;8.378;2023-05-21T03:46:11;18.07;;;11.63;;
49235;SDS011;35067;48.134;8.378;2023-05-21T03:47:12;18.70;;;12.40;;
49235;SDS011;35067;48.134;8.378;2023-05-21T03:48:12;17.70;;;12.43;;
49235;SDS011;35067;48.134;8.378;2023-05-21T03:49:13;19.60;;;12.17;;
49235;SDS011;35067;48.134;8.378;2023-05-21T03:50:15;18.10;;;12.17;;
49235;SDS011;35067;48.134;8.378;2023-05-21T03:51:16;17.90;;;11.65;;
49235;SDS011;35067;48.134;8.378;2023-05-21T03:52:19;21.67;;;13.07;;
49235;SDS011;35067;48.134;8.378;2023-05-21T03:53:20;19.30;;;12.07;;
49235;SDS011;35067;48.134;8.378;2023-05-21T03:54:21;18.70;;;12.07;;
49235;SDS011;35067;48.134;8.378;2023-05-21T03:55:22;19.60;;;12.43;;
49235;SDS011;35067;48.134;8.378;2023-05-21T03:56:22;19.50;;;12.27;;
49235;SDS011;35067;48.134;8.378;2023-05-21T03:57:23;18.27;;;12.33;;
49235;SDS011;35067;48.134;8.378;2023-05-21T03:58:24;17.83;;;12.40;;
49235;SDS011;35067;48.134;8.378;2023-05-21T03:59:25;14.32;;;10.27;;
49235;SDS011;35067;48.134;8.378;2023-05-21T04:00:26;14.90;;;10.40;;
49235;SDS011;35067;48.134;8.378;2023-05-21T04:01:27;15.23;;;10.33;;
49235;SDS011;35067;48.134;8.378;2023-05-21T04:02:30;16.60;;;11.60;;
49235;SDS011;35067;48.134;8.378;2023-05-21T04:03:31;16.40;;;11.10;;
49235;SDS011;35067;48.134;8.378;2023-05-21T04:04:34;16.73;;;11.23;;
49235;SDS011;35067;48.134;8.378;2023-05-21T04:05:36;16.63;;;10.85;;
49235;SDS011;35067;48.134;8.378;2023-05-21T04:06:36;15.87;;;9.90;;
49235;SDS011;35067;48.134;8.378;2023-05-21T04:07:37;15.53;;;11.03;;
49235;SDS011;35067;48.134;8.378;2023-05-21T04:08:38;15.88;;;10.70;;
49235;SDS011;35067;48.134;8.378;2023-05-21T04:09:40;15.73;;;10.40;;
49235;SDS011;35067;48.134;8.378;2023-05-21T04:10:41;16.27;;;11.10;;
49235;SDS011;35067;48.134;8.378;2023-05-21T04:11:41;19.40;;;11.47;;
49235;SDS011;35067;48.134;8.378;2023-05-21T04:12:42;17.07;;;11.33;;
49235;SDS011;35067;48.134;8.378;2023-05-21T04:13:43;17.63;;;11.05;;
49235;SDS011;35067;48.134;8.378;2023-05-21T04:14:45;17.17;;;10.85;;
49235;SDS011;35067;48.134;8.378;2023-05-21T04:15:46;20.30;;;11.00;;
49235;SDS011;35067;48.134;8.378;2023-05-21T04:16:47;18.63;;;10.85;;
49235;SDS011;35067;48.134;8.378;2023-05-21T04:17:48;18.23;;;11.38;;
49235;SDS011;35067;48.134;8.378;2023-05-21T04:18:49;15.13;;;11.30;;
49235;SDS011;35067;48.134;8.378;2023-05-21T04:19:50;16.00;;;10.83;;
49235;SDS011;35067;48.134;8.378;2023-05-21T04:20:51;19.42;;;11.60;;
49235;SDS011;35067;48.134;8.378;2023-05-21T04:21:52;15.18;;;10.75;;
49235;SDS011;35067;48.134;8.378;2023-05-21T04:22:53;16.83;;;11.50;;
49235;SDS011;35067;48.134;8.378;2023-05-21T04:23:54;16.40;;;11.53;;
49235;SDS011;35067;48.134;8.378;2023-05-21T04:24:56;15.52;;;10.98;;
49235;SDS011;35067;48.134;8.378;2023-05-21T04:25:58;17.75;;;11.95;;
49235;SDS011;35067;48.134;8.378;2023-05-21T04:26:59;18.53;;;12.20;;
49235;SDS011;35067;48.134;8.378;2023-05-21T04:28:00;15.43;;;11.07;;
49235;SDS011;35067;48.134;8.378;2023-05-21T04:29:01;17.60;;;10.80;;
49235;SDS011;35067;48.134;8.378;2023-05-21T04:30:05;17.20;;;11.18;;
49235;SDS011;35067;48.134;8.378;2023-05-21T04:31:06;19.58;;;11.88;;
49235;SDS011;35067;48.134;8.378;2023-05-21T04:32:07;19.13;;;12.45;;
49235;SDS011;35067;48.134;8.378;2023-05-21T04:33:08;18.40;;;11.63;;
49235;SDS011;35067;48.134;8.378;2023-05-21T04:34:09;18.67;;;11.83;;
49235;SDS011;35067;48.134;8.378;2023-05-21T04:35:10;22.23;;;12.13;;
49235;SDS011;35067;48.134;8.378;2023-05-21T04:36:14;18.30;;;12.60;;
49235;SDS011;35067;48.134;8.378;2023-05-21T04:37:17;19.08;;;12.48;;
49235;SDS011;35067;48.134;8.378;2023-05-21T04:38:17;18.98;;;11.27;;
49235;SDS011;35067;48.134;8.378;2023-05-21T04:39:18;17.40;;;10.93;;
49235;SDS011;35067;48.134;8.378;2023-05-21T04:40:19;20.63;;;12.67;;
49235;SDS011;35067;48.134;8.378;2023-05-21T04:41:23;18.48;;;11.68;;
49235;SDS011;35067;48.134;8.378;2023-05-21T04:42:24;19.53;;;12.60;;
49235;SDS011;35067;48.134;8.378;2023-05-21T04:43:25;16.83;;;11.60;;
49235;SDS011;35067;48.134;8.378;2023-05-21T04:44:26;18.80;;;10.75;;
49235;SDS011;35067;48.134;8.378;2023-05-21T04:45:28;18.15;;;12.05;;
49235;SDS011;35067;48.134;8.378;2023-05-21T04:46:29;17.27;;;11.50;;
49235;SDS011;35067;48.134;8.378;2023-05-21T04:47:30;18.77;;;11.82;;
49235;SDS011;35067;48.134;8.378;2023-05-21T04:48:34;17.42;;;11.55;;
49235;SDS011;35067;48.134;8.378;2023-05-21T04:49:34;15.77;;;11.47;;
49235;SDS011;35067;48.134;8.378;2023-05-21T04:50:35;16.40;;;11.87;;
49235;SDS011;35067;48.134;8.378;2023-05-21T04:51:36;16.83;;;12.00;;
49235;SDS011;35067;48.134;8.378;2023-05-21T04:52:38;17.47;;;11.20;;
49235;SDS011;35067;48.134;8.378;2023-05-21T04:53:40;16.10;;;10.60;;
49235;SDS011;35067;48.134;8.378;2023-05-21T04:54:41;20.17;;;12.55;;
49235;SDS011;35067;48.134;8.378;2023-05-21T04:55:44;16.30;;;11.40;;
49235;SDS011;35067;48.134;8.378;2023-05-21T04:56:45;15.55;;;11.40;;
49235;SDS011;35067;48.134;8.378;2023-05-21T04:57:47;19.27;;;12.73;;
49235;SDS011;35067;48.134;8.378;2023-05-21T04:58:48;18.17;;;12.00;;
49235;SDS011;35067;48.134;8.378;2023-05-21T04:59:49;17.77;;;13.13;;
49235;SDS011;35067;48.134;8.378;2023-05-21T05:00:51;18.33;;;12.63;;
49235;SDS011;35067;48.134;8.378;2023-05-21T05:01:52;16.33;;;11.48;;
49235;SDS011;35067;48.134;8.378;2023-05-21T05:02:53;16.53;;;11.80;;
49235;SDS011;35067;48.134;8.378;2023-05-21T05:03:54;18.53;;;12.90;;
49235;SDS011;35067;48.134;8.378;2023-05-21T05:04:55;15.40;;;11.70;;
49235;SDS011;35067;48.134;8.378;2023-05-21T05:05:56;14.57;;;10.60;;
49235;SDS011;35067;48.134;8.378;2023-05-21T05:06:56;17.00;;;11.60;;
49235;SDS011;35067;48.134;8.378;2023-05-21T05:07:57;15.77;;;10.60;;
49235;SDS011;35067;48.134;8.378;2023-05-21T05:08:58;15.27;;;10.53;;
49235;SDS011;35067;48.134;8.378;2023-05-21T05:09:59;18.90;;;11.23;;
49235;SDS011;35067;48.134;8.378;2023-05-21T05:10:59;13.67;;;9.63;;
49235;SDS011;35067;48.134;8.378;2023-05-21T05:12:00;14.13;;;10.23;;
49235;SDS011;35067;48.134;8.378;2023-05-21T05:13:01;14.20;;;10.47;;
49235;SDS011;35067;48.134;8.378;2023-05-21T05:14:02;15.67;;;10.13;;
49235;SDS011;35067;48.134;8.378;2023-05-21T05:15:03;12.90;;;9.33;;
49235;SDS011;35067;48.134;8.378;2023-05-21T05:16:04;12.33;;;9.40;;
49235;SDS011;35067;48.134;8.378;2023-05-21T05:17:04;13.20;;;8.70;;
49235;SDS011;35067;48.134;8.378;2023-05-21T05:18:07;13.80;;;9.77;;
49235;SDS011;35067;48.134;8.378;2023-05-21T05:19:07;12.63;;;9.60;;
49235;SDS011;35067;48.134;8.378;2023-05-21T05:20:09;11.70;;;8.57;;
49235;SDS011;35067;48.134;8.378;2023-05-21T05:21:10;15.18;;;10.00;;
49235;SDS011;35067;48.134;8.378;2023-05-21T05:22:11;12.00;;;9.03;;
49235;SDS011;35067;48.134;8.378;2023-05-21T05:23:12;11.33;;;8.73;;
49235;SDS011;35067;48.134;8.378;2023-05-21T05:24:14;13.50;;;9.50;;
49235;SDS011;35067;48.134;8.378;2023-05-21T05:25:15;12.87;;;9.53;;
49235;SDS011;35067;48.134;8.378;2023-05-21T05:26:16;14.98;;;9.57;;
49235;SDS011;35067;48.134;8.378;2023-05-21T05:27:17;12.40;;;9.53;;
49235;SDS011;35067;48.134;8.378;2023-05-21T05:28:18;18.55;;;11.23;;
49235;SDS011;35067;48.134;8.378;2023-05-21T05:29:19;14.07;;;10.30;;
49235;SDS011;35067;48.134;8.378;2023-05-21T05:30:20;12.70;;;10.17;;
49235;SDS011;35067;48.134;8.378;2023-05-21T05:31:20;13.23;;;9.40;;
49235;SDS011;35067;48.134;8.378;2023-05-21T05:32:21;13.37;;;10.53;;
49235;SDS011;35067;48.134;8.378;2023-05-21T05:33:22;16.23;;;11.27;;
49235;SDS011;35067;48.134;8.378;2023-05-21T05:34:23;15.47;;;11.50;;
49235;SDS011;35067;48.134;8.378;2023-05-21T05:35:23;14.53;;;11.37;;
49235;SDS011;35067;48.134;8.378;2023-05-21T05:36:24;15.20;;;10.87;;
49235;SDS011;35067;48.134;8.378;2023-05-21T05:37:26;16.83;;;11.83;;
49235;SDS011;35067;48.134;8.378;2023-05-21T05:38:26;16.27;;;11.73;;
49235;SDS011;35067;48.134;8.378;2023-05-21T05:39:27;15.63;;;11.80;;
49235;SDS011;35067;48.134;8.378;2023-05-21T05:40:28;16.27;;;11.83;;
49235;SDS011;35067;48.134;8.378;2023-05-21T05:41:28;19.03;;;12.30;;
49235;SDS011;35067;48.134;8.378;2023-05-21T05:42:30;17.30;;;11.77;;
49235;SDS011;35067;48.134;8.378;2023-05-21T05:43:30;15.67;;;11.20;;
49235;SDS011;35067;48.134;8.378;2023-05-21T05:44:31;15.33;;;11.27;;
49235;SDS011;35067;48.134;8.378;2023-05-21T05:45:32;16.17;;;12.00;;
49235;SDS011;35067;48.134;8.378;2023-05-21T05:46:33;16.33;;;11.23;;
49235;SDS011;35067;48.134;8.378;2023-05-21T05:47:34;15.87;;;11.47;;
49235;SDS011;35067;48.134;8.378;2023-05-21T05:48:34;16.30;;;11.57;;
49235;SDS011;35067;48.134;8.378;2023-05-21T05:49:35;17.73;;;12.37;;
49235;SDS011;35067;48.134;8.378;2023-05-21T05:50:36;15.07;;;11.47;;
49235;SDS011;35067;48.134;8.378;2023-05-21T05:51:37;14.77;;;11.23;;
49235;SDS011;35067;48.134;8.378;2023-05-21T05:52:38;15.33;;;11.50;;
49235;SDS011;35067;48.134;8.378;2023-05-21T05:53:38;16.67;;;11.73;;
49235;SDS011;35067;48.134;8.378;2023-05-21T05:54:39;15.20;;;11.23;;
49235;SDS011;35067;48.134;8.378;2023-05-21T05:55:40;16.30;;;11.60;;
49235;SDS011;35067;48.134;8.378;2023-05-21T05:56:42;19.40;;;12.33;;
49235;SDS011;35067;48.134;8.378;2023-05-21T05:57:42;15.73;;;11.80;;
49235;SDS011;35067;48.134;8.378;2023-05-21T05:58:43;18.13;;;12.43;;
49235;SDS011;35067;48.134;8.378;2023-05-21T05:59:44;13.97;;;11.27;;
49235;SDS011;35067;48.134;8.378;2023-05-21T06:00:45;14.57;;;11.00;;
49235;SDS011;35067;48.134;8.378;2023-05-21T06:01:46;16.42;;;11.60;;
49235;SDS011;35067;48.134;8.378;2023-05-21T06:02:47;16.33;;;12.00;;
49235;SDS011;35067;48.134;8.378;2023-05-21T06:03:48;15.80;;;11.63;;
49235;SDS011;35067;48.134;8.378;2023-05-21T06:04:49;20.57;;;13.37;;
49235;SDS011;35067;48.134;8.378;2023-05-21T06:05:52;22.33;;;12.43;;
49235;SDS011;35067;48.134;8.378;2023-05-21T06:06:52;15.90;;;11.03;;